Time;durP1;ratioP1;P1;durP2;ratioP2;P2;SDS_P1;SDS_P2;PMS_P1;PMS_P2;Temp;Humidity;BMP_temperature;BMP_pressure;BME280_temperature;BME280_humidity;BME280_pressure;Samples;Min_cycle;Max_cycle;Signal;HPM_P1;HPM_P2
2022/03/23 00:02:03;;;;;;;9.55;6.18;;;2.60;23.70;;;;;;5126237;27;35769;-75
2022/03/23 00:04:31;;;;;;;10.77;6.57;;;2.60;23.80;;;;;;5126103;27;34079;-75
2022/03/23 00:06:59;;;;;;;9.27;6.63;;;2.60;24.10;;;;;;5125860;27;34378;-75
2022/03/23 00:09:26;;;;;;;10.88;6.68;;;2.50;24.30;;;;;;5125575;27;34174;-75
2022/03/23 00:11:53;;;;;;;11.23;6.50;;;2.50;24.20;;;;;;5126076;27;36210;-75
2022/03/23 00:14:19;;;;;;;10.85;6.95;;;2.50;24.20;;;;;;5108489;27;34209;-76
2022/03/23 00:16:45;;;;;;;15.73;7.40;;;2.50;24.10;;;;;;5143994;27;34157;-75
2022/03/23 00:19:11;;;;;;;11.23;6.10;;;2.40;24.30;;;;;;5144397;27;34363;-75
2022/03/23 00:21:38;;;;;;;8.65;5.72;;;2.40;24.50;;;;;;5125911;27;35528;-75
2022/03/23 00:24:05;;;;;;;11.38;6.65;;;2.40;24.60;;;;;;5108886;27;34282;-75
2022/03/23 00:26:31;;;;;;;10.80;6.55;;;2.40;25.00;;;;;;5126055;27;34357;-75
2022/03/23 00:28:57;;;;;;;10.40;6.10;;;2.30;24.70;;;;;;5126072;27;34370;-76
2022/03/23 00:31:23;;;;;;;11.68;7.45;;;2.30;24.50;;;;;;5125504;27;36219;-76
2022/03/23 00:33:50;;;;;;;14.07;6.72;;;2.40;24.70;;;;;;5126135;27;34245;-76
2022/03/23 00:36:18;;;;;;;10.63;6.28;;;2.40;24.70;;;;;;5144103;27;34425;-76
2022/03/23 00:38:44;;;;;;;11.40;6.63;;;2.30;24.70;;;;;;5125684;27;34441;-75
2022/03/23 00:41:11;;;;;;;8.93;6.35;;;2.30;25.50;;;;;;5125437;27;35588;-75
2022/03/23 00:43:37;;;;;;;11.50;6.43;;;2.30;24.70;;;;;;5125720;27;34145;-76
2022/03/23 00:46:03;;;;;;;9.57;6.20;;;2.20;24.70;;;;;;5144178;27;34190;-76
2022/03/23 00:48:29;;;;;;;11.73;6.30;;;2.20;24.90;;;;;;5125417;27;34519;-76
2022/03/23 00:50:56;;;;;;;10.60;6.18;;;2.20;25.10;;;;;;5144010;27;34284;-75
2022/03/23 00:53:22;;;;;;;9.45;6.13;;;2.20;25.10;;;;;;5145087;27;34117;-76
2022/03/23 00:55:48;;;;;;;11.48;6.47;;;2.10;25.10;;;;;;5125857;27;34204;-76
2022/03/23 00:58:14;;;;;;;13.65;6.13;;;2.10;25.40;;;;;;5144913;27;34194;-76
2022/03/23 01:00:41;;;;;;;10.40;5.50;;;2.10;25.30;;;;;;5126242;27;35615;-76
2022/03/23 01:03:07;;;;;;;10.32;6.63;;;2.00;25.00;;;;;;5129875;27;34114;-76
2022/03/23 01:05:33;;;;;;;9.15;6.07;;;2.00;25.00;;;;;;5130079;27;34098;-76
2022/03/23 01:08:00;;;;;;;11.30;6.57;;;2.00;25.30;;;;;;5129254;27;34185;-76
2022/03/23 01:10:25;;;;;;;9.85;5.80;;;2.00;25.20;;;;;;5112979;27;35794;-76
2022/03/23 01:12:54;;;;;;;9.07;5.82;;;1.90;25.00;;;;;;5112690;27;34350;-76
2022/03/23 01:15:20;;;;;;;10.50;6.22;;;1.90;25.10;;;;;;5113152;27;34459;-76
2022/03/23 01:17:47;;;;;;;6.70;5.00;;;1.90;25.00;;;;;;5113356;27;34232;-76
2022/03/23 01:20:15;;;;;;;9.00;5.60;;;1.90;25.00;;;;;;5130007;27;35806;-76
2022/03/23 01:22:43;;;;;;;10.00;6.15;;;1.80;25.10;;;;;;5113444;27;34208;-76
2022/03/23 01:25:10;;;;;;;7.97;5.72;;;1.80;25.20;;;;;;5113391;27;34268;-76
2022/03/23 01:27:38;;;;;;;8.85;5.55;;;1.80;25.70;;;;;;5113465;27;34182;-76
2022/03/23 01:30:07;;;;;;;10.05;6.28;;;1.80;26.10;;;;;;5129740;27;35623;-76
2022/03/23 01:32:34;;;;;;;11.48;7.05;;;1.70;26.10;;;;;;5113502;27;34480;-76
2022/03/23 01:35:02;;;;;;;13.38;6.85;;;1.70;26.10;;;;;;5130600;27;34077;-76
2022/03/23 01:37:28;;;;;;;9.00;6.03;;;1.70;26.50;;;;;;5130287;27;34174;-75
2022/03/23 01:39:54;;;;;;;9.75;5.97;;;1.70;26.00;;;;;;5148964;27;34411;-75
2022/03/23 01:42:20;;;;;;;9.35;6.15;;;1.70;26.10;;;;;;5130984;27;34268;-77
2022/03/23 01:44:46;;;;;;;9.25;6.07;;;1.60;26.30;;;;;;5132365;27;34172;-76
2022/03/23 01:47:15;;;;;;;9.55;6.05;;;1.60;26.60;;;;;;5131876;27;34274;-76
2022/03/23 01:49:45;;;;;;;14.32;5.72;;;1.60;27.30;;;;;;5114635;27;35739;-76
2022/03/23 01:52:13;;;;;;;10.70;6.30;;;1.60;26.80;;;;;;5115285;27;34173;-76
2022/03/23 01:54:40;;;;;;;10.95;6.25;;;1.50;26.70;;;;;;5131045;27;34186;-76
2022/03/23 01:57:08;;;;;;;8.40;6.18;;;1.50;26.70;;;;;;5114926;27;34290;-76
2022/03/23 01:59:36;;;;;;;7.65;5.35;;;1.50;26.80;;;;;;5131102;27;36729;-76
2022/03/23 02:02:03;;;;;;;11.23;6.28;;;1.50;26.90;;;;;;5115523;27;34261;-77
2022/03/23 02:04:29;;;;;;;11.77;6.10;;;1.40;26.60;;;;;;5149877;27;34392;-77
2022/03/23 02:06:55;;;;;;;8.13;5.93;;;1.50;26.70;;;;;;5149693;27;34443;-76
2022/03/23 02:09:23;;;;;;;9.50;5.97;;;1.40;26.60;;;;;;5131987;27;35533;-76
2022/03/23 02:11:49;;;;;;;7.90;5.38;;;1.40;26.50;;;;;;5132356;27;34170;-76
2022/03/23 02:14:15;;;;;;;10.60;6.32;;;1.40;26.90;;;;;;5114085;27;34243;-76
2022/03/23 02:16:45;;;;;;;7.30;5.45;;;1.40;26.50;;;;;;5114877;27;34147;-76
2022/03/23 02:19:11;;;;;;;9.07;6.07;;;1.40;26.60;;;;;;5098188;27;35719;-76
2022/03/23 02:21:41;;;;;;;12.23;6.57;;;1.40;26.70;;;;;;5132176;27;34074;-76
2022/03/23 02:24:07;;;;;;;8.70;5.38;;;1.40;27.00;;;;;;5131895;27;34270;-76
2022/03/23 02:26:33;;;;;;;9.25;6.10;;;1.30;26.90;;;;;;5114736;27;34361;-76
2022/03/23 02:29:01;;;;;;;11.55;6.45;;;1.30;26.50;;;;;;5131637;27;36587;-76
2022/03/23 02:31:27;;;;;;;10.23;6.63;;;1.30;26.50;;;;;;5131366;27;34133;-76
2022/03/23 02:33:53;;;;;;;10.85;5.80;;;1.30;26.70;;;;;;5131782;27;33664;-76
2022/03/23 02:36:19;;;;;;;11.00;5.95;;;1.20;27.20;;;;;;5130874;27;34271;-77
2022/03/23 02:38:45;;;;;;;12.40;5.72;;;1.20;27.30;;;;;;5130698;27;36720;-76
2022/03/23 02:41:11;;;;;;;9.00;5.90;;;1.20;27.50;;;;;;5113800;27;35167;-76
2022/03/23 02:43:37;;;;;;;11.07;6.93;;;1.20;27.40;;;;;;5113670;27;34113;-76
2022/03/23 02:46:03;;;;;;;8.18;6.13;;;1.20;27.30;;;;;;5130972;27;34317;-77
2022/03/23 02:48:29;;;;;;;11.65;6.50;;;1.10;27.10;;;;;;5112298;27;35454;-76
2022/03/23 02:50:56;;;;;;;14.70;6.50;;;1.10;27.40;;;;;;5129153;27;34417;-77
2022/03/23 03:02:08;;;;;;;10.95;6.28;;;1.00;27.40;;;;;;5141521;27;33994;-77
2022/03/23 03:04:34;;;;;;;13.88;6.90;;;1.10;29.40;;;;;;5124586;27;34373;-77
2022/03/23 03:07:00;;;;;;;12.25;6.03;;;1.00;27.50;;;;;;5110777;27;34521;-77
2022/03/23 03:09:26;;;;;;;10.35;6.20;;;1.00;27.40;;;;;;5127805;27;35499;-77
2022/03/23 03:11:52;;;;;;;13.48;6.07;;;1.00;27.40;;;;;;5125550;27;34117;-76
2022/03/23 03:14:18;;;;;;;10.48;5.70;;;1.00;27.50;;;;;;5125400;27;34579;-76
2022/03/23 03:16:44;;;;;;;10.88;5.95;;;0.90;27.50;;;;;;5128061;27;34260;-76
2022/03/23 03:19:11;;;;;;;8.40;5.75;;;0.90;27.90;;;;;;5110846;27;35647;-76
2022/03/23 03:21:38;;;;;;;10.52;5.78;;;0.90;27.80;;;;;;5128082;27;34237;-76
2022/03/23 03:24:05;;;;;;;10.52;6.50;;;0.90;28.10;;;;;;5109865;27;34201;-77
2022/03/23 03:26:31;;;;;;;10.30;5.93;;;0.90;27.70;;;;;;5127207;27;34222;-77
2022/03/23 03:28:57;;;;;;;8.10;5.70;;;0.80;27.90;;;;;;5127650;27;36186;-77
2022/03/23 03:31:23;;;;;;;12.45;6.60;;;0.80;28.30;;;;;;5127305;27;34393;-77
2022/03/23 03:33:49;;;;;;;10.77;6.45;;;0.80;28.10;;;;;;5127005;27;34350;-77
2022/03/23 03:36:16;;;;;;;8.90;5.65;;;0.80;28.00;;;;;;5126953;27;34398;-77
2022/03/23 03:38:44;;;;;;;10.20;6.15;;;0.80;28.90;;;;;;5145768;27;35390;-77
2022/03/23 03:41:10;;;;;;;10.70;6.53;;;0.80;28.30;;;;;;5109924;27;34178;-77
2022/03/23 03:43:37;;;;;;;9.80;5.68;;;0.70;28.50;;;;;;5146105;27;34817;-76
2022/03/23 03:46:06;;;;;;;9.85;5.93;;;0.70;27.70;;;;;;5126525;27;34186;-76
2022/03/23 03:48:33;;;;;;;11.10;6.25;;;0.70;28.10;;;;;;5127008;27;35800;-76
2022/03/23 03:51:00;;;;;;;10.43;5.18;;;0.70;28.20;;;;;;5126274;27;34181;-76
2022/03/23 03:53:26;;;;;;;10.65;6.32;;;0.70;28.50;;;;;;5126218;27;34250;-77
2022/03/23 03:55:52;;;;;;;12.52;5.88;;;0.60;28.40;;;;;;5145290;27;34328;-77
2022/03/23 03:58:18;;;;;;;8.80;5.70;;;0.60;28.30;;;;;;5092446;27;35764;-77
2022/03/23 04:00:44;;;;;;;11.05;6.78;;;0.60;28.50;;;;;;5126605;27;34356;-77
2022/03/23 04:03:12;;;;;;;12.48;6.45;;;0.60;28.50;;;;;;5108860;27;34320;-77
2022/03/23 04:05:38;;;;;;;9.43;5.40;;;0.60;28.40;;;;;;5126011;27;34504;-77
2022/03/23 04:08:04;;;;;;;10.45;6.50;;;0.60;28.50;;;;;;5125490;27;35901;-77
2022/03/23 04:10:30;;;;;;;10.95;6.30;;;0.60;28.60;;;;;;5125791;27;34206;-76
2022/03/23 04:12:57;;;;;;;12.02;6.45;;;0.50;28.50;;;;;;5108668;27;34258;-76
2022/03/23 04:15:25;;;;;;;9.93;6.13;;;0.50;28.40;;;;;;5126085;27;34497;-76
2022/03/23 04:17:52;;;;;;;9.80;6.43;;;0.50;28.60;;;;;;5144103;27;34631;-76
2022/03/23 04:20:18;;;;;;;8.70;5.68;;;0.50;28.90;;;;;;5126736;27;34311;-76
2022/03/23 04:22:44;;;;;;;9.90;5.50;;;0.50;28.60;;;;;;5125805;27;34107;-77
2022/03/23 04:25:11;;;;;;;12.30;6.53;;;0.50;28.60;;;;;;5125775;27;34312;-77
2022/03/23 04:27:47;;;;;;;9.38;6.05;;;0.50;28.60;;;;;;5126085;27;36042;-76
2022/03/23 04:30:14;;;;;;;11.88;6.15;;;0.50;29.30;;;;;;5126040;27;34276;-77
2022/03/23 04:32:41;;;;;;;10.88;6.22;;;0.50;28.60;;;;;;5125415;27;34174;-76
2022/03/23 04:35:07;;;;;;;8.55;5.75;;;0.40;28.80;;;;;;5127441;27;34452;-76
2022/03/23 04:37:33;;;;;;;11.70;6.75;;;0.40;29.30;;;;;;5128851;27;35752;-76
2022/03/23 04:40:00;;;;;;;9.23;6.47;;;0.40;29.70;;;;;;5147855;27;34367;-77
2022/03/23 04:42:26;;;;;;;9.05;5.65;;;0.40;29.00;;;;;;5129715;27;34538;-77
2022/03/23 04:44:52;;;;;;;13.27;6.75;;;0.40;29.60;;;;;;5096038;27;34237;-77
2022/03/23 04:47:18;;;;;;;10.48;6.15;;;0.30;29.40;;;;;;5129456;27;35802;-77
2022/03/23 04:49:44;;;;;;;9.27;5.80;;;0.30;29.50;;;;;;5147880;27;34106;-77
2022/03/23 04:52:11;;;;;;;10.02;6.88;;;0.30;29.30;;;;;;5129367;27;34197;-76
2022/03/23 04:54:37;;;;;;;10.95;6.60;;;0.30;29.30;;;;;;5113094;27;34171;-76
2022/03/23 04:57:04;;;;;;;10.60;5.82;;;0.30;28.80;;;;;;5129031;27;35957;-76
2022/03/23 04:59:29;;;;;;;11.50;6.78;;;0.30;28.70;;;;;;5128623;27;34302;-76
2022/03/23 05:01:55;;;;;;;11.43;6.65;;;0.20;28.80;;;;;;5129128;27;34296;-76
2022/03/23 05:04:21;;;;;;;8.73;5.90;;;0.20;29.00;;;;;;5112220;27;34644;-76
2022/03/23 05:06:47;;;;;;;10.35;6.28;;;0.20;29.30;;;;;;5128861;27;36619;-76
2022/03/23 05:09:13;;;;;;;11.50;5.90;;;0.20;29.50;;;;;;5095381;27;34384;-76
2022/03/23 05:11:39;;;;;;;8.07;5.88;;;0.20;29.40;;;;;;5128491;27;34434;-76
2022/03/23 05:14:05;;;;;;;12.25;5.97;;;0.20;29.30;;;;;;5128541;27;34040;-76
2022/03/23 05:16:31;;;;;;;11.20;6.15;;;0.20;29.40;;;;;;5111606;27;36059;-77
2022/03/23 05:18:57;;;;;;;12.80;6.05;;;0.10;29.40;;;;;;5129247;27;34343;-77
2022/03/23 05:21:23;;;;;;;15.55;6.05;;;0.10;29.30;;;;;;5111259;27;34386;-77
2022/03/23 05:23:49;;;;;;;10.63;6.10;;;0.10;29.50;;;;;;5111374;27;34201;-77
2022/03/23 05:26:16;;;;;;;8.73;5.35;;;0.10;29.40;;;;;;5111127;27;35715;-77
2022/03/23 05:28:42;;;;;;;9.93;5.95;;;0.10;30.00;;;;;;5111684;27;34203;-76
2022/03/23 05:31:08;;;;;;;9.57;6.15;;;0.10;29.50;;;;;;5128554;27;34111;-76
2022/03/23 05:33:34;;;;;;;9.73;5.70;;;0.00;29.40;;;;;;5146974;27;34130;-76
2022/03/23 05:36:00;;;;;;;10.50;5.88;;;0.00;29.90;;;;;;5128299;27;34408;-76
2022/03/23 05:38:26;;;;;;;10.38;6.65;;;0.00;30.00;;;;;;5111243;27;34220;-76
2022/03/23 05:40:52;;;;;;;11.45;6.70;;;0.00;30.00;;;;;;5128706;27;34370;-76
2022/03/23 05:43:19;;;;;;;10.38;5.90;;;0.00;30.00;;;;;;5128877;27;34341;-76
2022/03/23 05:45:45;;;;;;;10.50;6.35;;;0.10;29.90;;;;;;5128007;27;35786;-77
2022/03/23 05:48:11;;;;;;;9.45;5.82;;;0.10;29.80;;;;;;5145658;27;34015;-76
2022/03/23 05:50:37;;;;;;;12.00;6.78;;;0.10;29.80;;;;;;5128140;27;34406;-76
2022/03/23 05:53:03;;;;;;;9.30;6.18;;;0.10;29.70;;;;;;5128500;27;34156;-76
2022/03/23 05:55:30;;;;;;;11.10;6.38;;;0.10;29.60;;;;;;5127366;27;35822;-76
2022/03/23 05:57:56;;;;;;;9.18;6.00;;;0.10;29.80;;;;;;5146956;27;34348;-76
2022/03/23 06:00:22;;;;;;;12.57;6.45;;;0.20;29.90;;;;;;5111099;27;34288;-76
2022/03/23 06:02:49;;;;;;;9.52;5.97;;;0.20;29.60;;;;;;5128410;27;34383;-76
2022/03/23 06:05:15;;;;;;;12.32;6.28;;;0.20;29.70;;;;;;5146106;27;34210;-77
2022/03/23 06:07:40;;;;;;;12.18;6.80;;;0.30;29.70;;;;;;5110112;27;34360;-77
2022/03/23 06:10:07;;;;;;;9.80;6.90;;;0.30;29.70;;;;;;5093264;27;34240;-76
2022/03/23 06:12:33;;;;;;;10.50;6.38;;;0.40;29.70;;;;;;5111059;27;34093;-76
2022/03/23 06:14:59;;;;;;;10.82;6.20;;;0.60;29.90;;;;;;5146135;27;34522;-76
2022/03/23 06:17:25;;;;;;;11.45;7.35;;;0.80;29.90;;;;;;5127546;27;34189;-77
2022/03/23 06:19:51;;;;;;;16.02;7.05;;;1.10;29.50;;;;;;5127134;27;34286;-77
2022/03/23 06:22:18;;;;;;;12.00;7.25;;;1.50;28.90;;;;;;5110604;27;34407;-77
2022/03/23 06:24:44;;;;;;;11.45;7.32;;;1.80;27.80;;;;;;5128200;27;36439;-77
2022/03/23 06:27:10;;;;;;;12.43;6.93;;;2.10;27.30;;;;;;5146347;27;34244;-77
2022/03/23 06:29:37;;;;;;;12.07;7.03;;;2.40;26.70;;;;;;5146405;27;34259;-77
2022/03/23 06:32:03;;;;;;;18.58;7.80;;;2.70;26.30;;;;;;5129080;27;34304;-77
2022/03/23 06:34:29;;;;;;;13.57;7.32;;;2.90;26.00;;;;;;5111346;27;34470;-77
2022/03/23 06:36:55;;;;;;;12.75;6.88;;;3.30;25.60;;;;;;5126993;27;34325;-77
2022/03/23 06:39:21;;;;;;;10.82;7.50;;;3.60;24.80;;;;;;5145457;27;34400;-78
2022/03/23 06:41:47;;;;;;;11.35;6.70;;;4.00;24.10;;;;;;5129020;27;34234;-78
2022/03/23 06:44:13;;;;;;;13.73;7.78;;;4.30;23.60;;;;;;5127372;27;36412;-77
2022/03/23 06:46:39;;;;;;;10.75;7.15;;;4.60;23.00;;;;;;5146861;27;34411;-77
2022/03/23 06:49:05;;;;;;;12.02;6.50;;;4.80;22.80;;;;;;5128388;27;34094;-77
2022/03/23 06:51:32;;;;;;;11.55;7.28;;;5.00;22.50;;;;;;5111198;27;34357;-77
2022/03/23 06:53:58;;;;;;;10.07;7.30;;;5.10;22.40;;;;;;5111280;27;35796;-77
2022/03/23 06:56:24;;;;;;;10.00;6.95;;;5.30;22.30;;;;;;5146617;27;34234;-76
2022/03/23 06:58:49;;;;;;;10.40;6.63;;;5.50;22.20;;;;;;5111003;27;34115;-78
2022/03/23 07:01:15;;;;;;;14.35;8.35;;;5.60;22.00;;;;;;5130993;27;34411;-78
2022/03/23 07:03:41;;;;;;;12.43;7.75;;;5.90;21.70;;;;;;5127717;27;36406;-78
2022/03/23 07:06:07;;;;;;;11.30;7.22;;;6.00;21.60;;;;;;5128042;27;34336;-77
2022/03/23 07:11:14;;;;;;;15.05;8.65;;;6.40;21.40;;;;;;5146796;27;34164;-77
2022/03/23 07:13:40;;;;;;;12.38;8.70;;;6.60;21.50;;;;;;5145958;27;34917;-77
2022/03/23 07:16:06;;;;;;;17.50;8.70;;;6.70;21.60;;;;;;5111283;27;34257;-76
2022/03/23 07:18:32;;;;;;;15.50;9.25;;;6.90;22.00;;;;;;5128646;27;34197;-77
2022/03/23 07:20:58;;;;;;;14.57;9.82;;;7.10;21.20;;;;;;5146428;27;34298;-77
2022/03/23 07:23:24;;;;;;;12.95;9.27;;;7.20;21.30;;;;;;5128719;27;36673;-76
2022/03/23 07:25:50;;;;;;;15.13;9.73;;;7.40;21.20;;;;;;5112546;27;34002;-76
2022/03/23 07:28:15;;;;;;;14.05;9.48;;;7.50;21.20;;;;;;5130018;27;34261;-76
2022/03/23 07:30:41;;;;;;;17.35;9.85;;;7.60;21.10;;;;;;5128604;27;34191;-76
2022/03/23 07:33:09;;;;;;;16.67;10.35;;;7.70;21.20;;;;;;5129521;27;35957;-76
2022/03/23 07:35:35;;;;;;;14.75;9.40;;;7.80;21.00;;;;;;5129072;27;34388;-76
2022/03/23 07:38:00;;;;;;;21.38;9.40;;;7.90;21.00;;;;;;5112658;27;34423;-76
2022/03/23 07:40:26;;;;;;;13.27;9.30;;;7.90;21.00;;;;;;5113024;27;34164;-76
2022/03/23 07:42:52;;;;;;;16.27;9.68;;;7.90;21.00;;;;;;5111901;27;35824;-76
2022/03/23 07:45:18;;;;;;;14.35;9.23;;;8.00;21.10;;;;;;5128896;27;34248;-76
2022/03/23 07:47:44;;;;;;;18.20;10.32;;;8.10;21.10;;;;;;5146973;27;34098;-76
2022/03/23 07:50:11;;;;;;;15.30;10.52;;;8.20;21.00;;;;;;5128383;27;33890;-75
2022/03/23 07:52:37;;;;;;;15.43;9.48;;;8.30;20.90;;;;;;5127547;27;35195;-75
2022/03/23 07:55:03;;;;;;;17.08;10.23;;;8.30;21.00;;;;;;5128256;27;34181;-75
2022/03/23 07:57:29;;;;;;;16.40;10.80;;;8.40;21.00;;;;;;5127460;27;34232;-75
2022/03/23 07:59:55;;;;;;;13.70;9.95;;;8.30;21.10;;;;;;5145883;27;34232;-75
2022/03/23 08:02:24;;;;;;;18.48;10.68;;;8.40;21.20;;;;;;5127215;27;36349;-75
2022/03/23 08:04:50;;;;;;;15.43;10.40;;;8.50;21.30;;;;;;5128211;27;34262;-75
2022/03/23 08:07:16;;;;;;;17.30;9.90;;;8.60;21.30;;;;;;5127480;27;34614;-75
2022/03/23 08:09:42;;;;;;;16.85;10.18;;;8.70;21.20;;;;;;5127764;27;34325;-75
2022/03/23 08:12:09;;;;;;;16.85;10.55;;;8.80;21.20;;;;;;5127980;27;34454;-75
2022/03/23 08:14:35;;;;;;;15.13;10.25;;;8.80;21.00;;;;;;5107857;27;34286;-75
2022/03/23 08:17:01;;;;;;;14.40;10.02;;;8.90;21.10;;;;;;5134060;27;34280;-75
2022/03/23 08:19:27;;;;;;;18.13;9.95;;;9.10;21.10;;;;;;5127686;27;34453;-76
2022/03/23 08:21:53;;;;;;;14.32;9.88;;;9.20;21.00;;;;;;5145535;27;34435;-76
2022/03/23 08:24:19;;;;;;;17.08;9.70;;;9.40;21.00;;;;;;5128101;27;34190;-76
2022/03/23 08:26:46;;;;;;;16.40;10.20;;;9.50;20.90;;;;;;5147252;27;34084;-76
2022/03/23 08:29:12;;;;;;;13.82;9.25;;;9.60;20.80;;;;;;5128808;27;34143;-76
2022/03/23 08:31:38;;;;;;;16.98;10.70;;;9.80;20.70;;;;;;5128865;27;35737;-76
2022/03/23 08:34:05;;;;;;;15.02;9.80;;;10.10;20.80;;;;;;5125286;27;34269;-76
2022/03/23 08:36:31;;;;;;;16.15;10.10;;;10.20;20.20;;;;;;5109397;27;34155;-76
2022/03/23 08:38:58;;;;;;;17.88;10.32;;;10.40;20.20;;;;;;5128914;27;34483;-76
2022/03/23 08:41:24;;;;;;;14.90;10.00;;;10.70;20.10;;;;;;5110430;27;35625;-76
2022/03/23 08:43:50;;;;;;;15.15;10.10;;;10.90;20.00;;;;;;5127597;27;34291;-76
2022/03/23 08:46:16;;;;;;;14.35;9.70;;;11.10;19.90;;;;;;5146449;27;34233;-76
2022/03/23 08:48:42;;;;;;;14.05;9.27;;;11.30;19.80;;;;;;5128065;27;34224;-76
2022/03/23 08:51:08;;;;;;;17.00;9.88;;;11.60;19.60;;;;;;5134239;27;35098;-77
2022/03/23 08:53:34;;;;;;;15.70;10.20;;;11.80;19.20;;;;;;5143208;27;34297;-76
2022/03/23 08:56:00;;;;;;;17.33;9.45;;;12.10;19.20;;;;;;5129311;27;34149;-76
2022/03/23 08:58:26;;;;;;;17.23;9.80;;;12.20;18.70;;;;;;5128822;27;34209;-76
2022/03/23 09:00:52;;;;;;;14.32;9.50;;;12.40;18.50;;;;;;5112011;27;35616;-76
2022/03/23 09:03:18;;;;;;;13.10;9.38;;;12.50;18.10;;;;;;5147774;27;34211;-75
2022/03/23 09:05:44;;;;;;;18.75;10.30;;;12.60;18.10;;;;;;5147977;27;34077;-76
2022/03/23 09:08:11;;;;;;;13.55;9.98;;;12.80;18.30;;;;;;5129524;27;34195;-76
2022/03/23 09:10:37;;;;;;;13.93;10.18;;;13.10;18.30;;;;;;5147164;27;34179;-76
2022/03/23 09:13:04;;;;;;;14.93;10.20;;;13.30;18.00;;;;;;5128618;27;34271;-76
2022/03/23 09:15:30;;;;;;;13.52;9.20;;;13.50;17.80;;;;;;5111654;27;34354;-76
2022/03/23 09:18:01;;;;;;;18.33;10.45;;;13.60;17.50;;;;;;5128514;27;34395;-76
2022/03/23 09:20:28;;;;;;;19.15;10.25;;;13.90;16.30;;;;;;5111466;27;35700;-76
2022/03/23 09:22:55;;;;;;;14.55;10.15;;;14.10;17.00;;;;;;5132194;27;34189;-76
2022/03/23 09:25:22;;;;;;;15.35;9.88;;;14.20;16.50;;;;;;5116672;27;34188;-76
2022/03/23 09:27:49;;;;;;;14.05;9.40;;;14.40;16.30;;;;;;5133751;27;34156;-76
2022/03/23 09:30:15;;;;;;;16.90;9.93;;;14.70;16.30;;;;;;5132956;27;35635;-76
2022/03/23 09:32:43;;;;;;;14.45;9.57;;;14.90;16.20;;;;;;5150639;27;34037;-76
2022/03/23 09:35:10;;;;;;;15.30;9.80;;;15.20;15.80;;;;;;5133322;27;34330;-77
2022/03/23 09:40:24;;;;;;;14.63;10.38;;;15.50;15.60;;;;;;5151874;27;34055;-76
2022/03/23 09:42:51;;;;;;;16.05;9.50;;;15.80;14.90;;;;;;5117013;27;34331;-76
2022/03/23 09:45:31;;;;;;;17.08;9.52;;;16.00;15.20;;;;;;5133088;27;33877;-76
2022/03/23 09:47:57;;;;;;;15.48;10.48;;;16.20;15.10;;;;;;5116988;27;34304;-77
2022/03/23 09:50:30;;;;;;;20.50;10.35;;;16.30;14.70;;;;;;5132677;27;35663;-76
2022/03/23 09:52:57;;;;;;;18.08;10.60;;;16.40;13.60;;;;;;5150530;27;34218;-76
2022/03/23 09:55:23;;;;;;;16.52;9.85;;;16.50;14.00;;;;;;5150774;27;34133;-76
2022/03/23 09:57:49;;;;;;;25.60;10.50;;;16.60;13.60;;;;;;5134541;27;34168;-76
2022/03/23 10:00:15;;;;;;;23.65;9.95;;;16.70;13.60;;;;;;5115035;27;35897;-76
2022/03/23 10:03:17;;;;;;;15.18;9.63;;;16.80;13.30;;;;;;5150501;27;34229;-76
2022/03/23 10:06:04;;;;;;;18.38;10.18;;;16.90;8.40;;;;;;5132803;27;34397;-76
2022/03/23 10:09:06;;;;;;;14.57;9.57;;;17.10;8.50;;;;;;5127733;27;34096;-76
2022/03/23 10:12:07;;;;;;;20.25;9.65;;;17.30;9.60;;;;;;5135169;27;35328;-76
2022/03/23 10:15:03;;;;;;;16.35;10.63;;;17.60;9.80;;;;;;5135756;27;34583;-76
2022/03/23 10:17:54;;;;;;;16.67;9.75;;;17.80;8.80;;;;;;5131548;27;34048;-76
2022/03/23 10:20:20;;;;;;;14.75;9.27;;;18.10;7.90;;;;;;5132009;27;34078;-76
2022/03/23 10:22:49;;;;;;;18.75;10.40;;;18.20;11.90;;;;;;5131939;27;34870;-76
2022/03/23 10:25:18;;;;;;;18.52;10.40;;;18.40;11.10;;;;;;5115523;27;34087;-76
2022/03/23 10:27:44;;;;;;;23.27;10.55;;;18.60;11.20;;;;;;5131759;27;34184;-76
2022/03/23 10:30:10;;;;;;;19.20;10.05;;;18.80;10.90;;;;;;5128280;27;33985;-76
2022/03/23 10:32:38;;;;;;;17.15;9.95;;;19.00;10.70;;;;;;5147084;27;34276;-76
2022/03/23 10:35:09;;;;;;;19.90;9.82;;;19.10;10.20;;;;;;5150077;27;34181;-76
2022/03/23 10:37:35;;;;;;;16.48;9.68;;;19.30;9.80;;;;;;5131230;27;34131;-76
2022/03/23 10:40:09;;;;;;;16.70;9.45;;;19.50;10.10;;;;;;5130084;27;34435;-76
2022/03/23 10:42:38;;;;;;;17.02;9.25;;;19.80;6.90;;;;;;5113507;27;35622;-76
2022/03/23 10:45:13;;;;;;;14.45;9.23;;;19.90;9.20;;;;;;5114474;27;34201;-76
2022/03/23 10:47:41;;;;;;;14.35;9.43;;;20.00;7.80;;;;;;5132048;27;34027;-76
2022/03/23 10:50:13;;;;;;;16.63;9.30;;;20.10;9.00;;;;;;5150105;27;34345;-76
2022/03/23 10:52:57;;;;;;;18.10;9.68;;;20.20;8.10;;;;;;5113993;27;35813;-77
2022/03/23 10:55:25;;;;;;;16.17;9.45;;;20.50;3.90;;;;;;5115311;27;34082;-76
2022/03/23 10:58:20;;;;;;;16.15;9.75;;;20.50;8.70;;;;;;5103362;27;34211;-77
2022/03/23 11:00:46;;;;;;;19.05;9.10;;;20.70;4.10;;;;;;5117816;27;34609;-76
2022/03/23 11:03:12;;;;;;;13.90;8.55;;;20.80;8.70;;;;;;5150303;27;34472;-76
2022/03/23 11:05:42;;;;;;;14.82;9.45;;;20.90;8.60;;;;;;5132062;27;33921;-76
2022/03/23 11:08:25;;;;;;;14.15;9.23;;;21.10;6.70;;;;;;5113490;27;34214;-76
2022/03/23 11:16:29;;;;;;;15.13;8.48;;;21.60;7.60;;;;;;5133126;27;34262;-76
2022/03/23 11:19:15;;;;;;;15.70;8.00;;;21.70;7.40;;;;;;5148411;27;34061;-76
2022/03/23 11:21:58;;;;;;;17.88;8.15;;;21.90;5.70;;;;;;5131749;27;34384;-76
2022/03/23 11:24:25;;;;;;;10.60;7.13;;;22.00;3.10;;;;;;5113913;27;35615;-76
2022/03/23 11:26:52;;;;;;;13.00;7.60;;;22.20;7.00;;;;;;5132049;27;34232;-76
2022/03/23 11:29:18;;;;;;;14.57;7.68;;;22.40;6.90;;;;;;5148337;27;34003;-77
2022/03/23 11:31:46;;;;;;;14.88;8.05;;;22.60;6.80;;;;;;5131227;27;34394;-77
2022/03/23 11:34:17;;;;;;;13.60;8.05;;;22.60;5.50;;;;;;5131402;27;35629;-76
2022/03/23 11:36:43;;;;;;;14.02;7.90;;;22.60;6.00;;;;;;5149624;27;34287;-77
2022/03/23 11:39:11;;;;;;;14.40;6.95;;;22.60;6.00;;;;;;5150531;27;34114;-76
2022/03/23 11:41:38;;;;;;;12.38;6.20;;;22.70;4.90;;;;;;5131496;27;34192;-77
2022/03/23 11:44:04;;;;;;;11.10;6.68;;;22.60;5.10;;;;;;5114158;27;35682;-76
2022/03/23 11:46:31;;;;;;;12.70;6.57;;;22.70;5.00;;;;;;5096514;27;33625;-76
2022/03/23 11:49:19;;;;;;;9.80;5.28;;;22.80;5.40;;;;;;5129498;27;34326;-77
2022/03/23 11:52:10;;;;;;;11.02;6.00;;;22.80;1.00;;;;;;5130454;27;34544;-78
2022/03/23 11:58:01;;;;;;;9.68;5.93;;;23.20;2.00;;;;;;5149154;27;34209;-77
2022/03/23 12:00:29;;;;;;;11.32;6.53;;;23.20;1.00;;;;;;5112194;27;34411;-77
2022/03/23 12:02:55;;;;;;;8.65;5.43;;;23.20;3.30;;;;;;5113674;27;34304;-77
2022/03/23 12:05:49;;;;;;;7.72;4.88;;;23.10;3.60;;;;;;5130052;27;35504;-77
2022/03/23 12:08:43;;;;;;;8.80;4.63;;;23.10;1.00;;;;;;5129456;27;34312;-77
2022/03/23 12:11:33;;;;;;;8.90;4.78;;;23.10;1.00;;;;;;5116395;27;34279;-77
2022/03/23 12:14:02;;;;;;;11.38;5.43;;;23.00;1.00;;;;;;5112962;27;34194;-77
2022/03/23 12:17:03;;;;;;;10.30;5.20;;;22.90;2.60;;;;;;5112872;27;35816;-78
2022/03/23 12:19:32;;;;;;;13.52;5.78;;;22.90;1.00;;;;;;5116131;27;34278;-77
2022/03/23 12:22:16;;;;;;;10.98;4.97;;;23.00;2.80;;;;;;5126164;27;34196;-77
2022/03/23 12:24:54;;;;;;;9.05;5.32;;;23.10;1.00;;;;;;5109143;27;34098;-77
2022/03/23 12:27:50;;;;;;;9.05;5.47;;;23.10;1.00;;;;;;5080326;28;35822;-77
2022/03/23 12:30:31;;;;;;;9.48;5.10;;;23.10;1.00;;;;;;5144028;27;34379;-77
2022/03/23 12:32:58;;;;;;;13.13;5.80;;;23.00;1.00;;;;;;5109127;27;34124;-77
2022/03/23 12:35:34;;;;;;;8.27;4.97;;;23.00;1.70;;;;;;5107944;27;34186;-77
2022/03/23 12:38:01;;;;;;;8.50;5.35;;;22.90;1.00;;;;;;5125479;27;35765;-77
2022/03/23 12:40:43;;;;;;;7.57;5.63;;;22.90;2.10;;;;;;5127211;27;33676;-76
2022/03/23 12:43:29;;;;;;;8.48;5.45;;;23.00;1.00;;;;;;5109171;27;34185;-77
2022/03/23 12:45:55;;;;;;;14.02;6.20;;;23.00;2.00;;;;;;5093984;27;33925;-77
2022/03/23 12:59:17;;;;;;;10.13;5.13;;;23.10;1.00;;;;;;5102859;28;34358;-77
2022/03/23 13:01:44;;;;;;;7.50;5.30;;;23.10;1.00;;;;;;5128771;27;34343;-77
2022/03/23 13:04:52;;;;;;;31.67;6.85;;;23.00;1.30;;;;;;5093071;27;34284;-76
2022/03/23 13:07:41;;;;;;;9.77;5.80;;;22.90;1.00;;;;;;5098683;27;34199;-76
2022/03/23 13:10:11;;;;;;;13.50;5.93;;;22.90;1.00;;;;;;5130219;27;34307;-76
2022/03/23 13:12:38;;;;;;;10.57;5.75;;;22.80;1.00;;;;;;5129620;27;34438;-76
2022/03/23 13:15:18;;;;;;;9.85;5.22;;;22.90;1.40;;;;;;5112320;27;34289;-77
2022/03/23 13:17:46;;;;;;;14.13;6.13;;;23.00;1.00;;;;;;5094783;27;34028;-76
2022/03/23 13:20:16;;;;;;;11.88;5.85;;;23.00;1.00;;;;;;5128977;27;36076;-76
2022/03/23 13:22:42;;;;;;;11.68;5.72;;;23.10;1.00;;;;;;5128425;27;34222;-76
2022/03/23 13:25:13;;;;;;;13.95;5.85;;;23.10;1.00;;;;;;5110812;27;34204;-77
2022/03/23 13:27:41;;;;;;;12.07;5.70;;;23.10;1.00;;;;;;5110476;27;34403;-76